Time;durP1;ratioP1;P1;durP2;ratioP2;P2;SDS_P1;SDS_P2;PMS_P1;PMS_P2;Temp;Humidity;BMP_temperature;BMP_pressure;BME280_temperature;BME280_humidity;BME280_pressure;Samples;Min_cycle;Max_cycle;Signal;HPM_P1;HPM_P2
2021/12/03 00:00:43;;;;;;;4.33;3.90;;;3.80;99.90;;;;;;4999077;28;20415;-62
2021/12/03 00:03:10;;;;;;;4.57;3.77;;;3.80;99.90;;;;;;4998849;28;21035;-62
2021/12/03 00:05:36;;;;;;;4.40;3.97;;;4.00;99.90;;;;;;5016807;28;20473;-62
2021/12/03 00:08:03;;;;;;;9.43;5.53;;;3.80;99.90;;;;;;5016664;28;20453;-62
2021/12/03 00:10:29;;;;;;;4.40;3.93;;;3.70;99.90;;;;;;5016603;28;20403;-62
2021/12/03 00:12:57;;;;;;;4.77;4.37;;;3.60;99.90;;;;;;4998707;28;20494;-62
2021/12/03 00:15:25;;;;;;;6.70;4.97;;;3.60;99.90;;;;;;4983026;28;20510;-62
2021/12/03 00:17:51;;;;;;;4.87;4.00;;;3.70;99.90;;;;;;4998665;28;20414;-62
2021/12/03 00:20:18;;;;;;;6.10;4.73;;;3.50;99.90;;;;;;4998560;28;20419;-62
2021/12/03 00:22:45;;;;;;;6.67;4.70;;;3.50;99.90;;;;;;4998511;28;20450;-62
2021/12/03 00:25:12;;;;;;;4.97;4.47;;;3.40;99.90;;;;;;4998474;28;20455;-61
2021/12/03 00:27:38;;;;;;;7.43;4.80;;;3.40;99.90;;;;;;4998450;28;20399;-61
2021/12/03 00:30:07;;;;;;;5.20;4.70;;;3.50;99.90;;;;;;5015950;28;20405;-62
2021/12/03 00:32:33;;;;;;;5.30;4.80;;;3.30;99.90;;;;;;4998051;28;20419;-62
2021/12/03 00:34:59;;;;;;;8.83;5.57;;;3.30;99.90;;;;;;5016005;28;21044;-60
2021/12/03 00:37:24;;;;;;;7.40;5.13;;;3.40;99.90;;;;;;5016347;28;20426;-61
2021/12/03 00:39:50;;;;;;;6.30;5.00;;;3.50;99.90;;;;;;4998483;28;20226;-61
2021/12/03 00:42:17;;;;;;;7.10;5.63;;;3.50;99.90;;;;;;5016210;28;20531;-61
2021/12/03 00:44:49;;;;;;;10.00;5.80;;;3.50;99.90;;;;;;4998284;28;20605;-62
2021/12/03 00:47:15;;;;;;;5.07;4.67;;;3.50;99.90;;;;;;4998226;28;20783;-62
2021/12/03 00:49:40;;;;;;;7.73;5.83;;;3.50;99.90;;;;;;4997833;28;20422;-60
2021/12/03 00:52:06;;;;;;;5.53;4.73;;;3.50;99.90;;;;;;5015799;28;20172;-60
2021/12/03 00:54:32;;;;;;;6.73;5.27;;;3.60;99.90;;;;;;4996892;28;20307;-61
2021/12/03 00:56:58;;;;;;;9.37;6.37;;;3.40;99.90;;;;;;4998074;28;20454;-62
2021/12/03 00:59:24;;;;;;;7.23;5.70;;;3.40;99.90;;;;;;5015664;28;20886;-62
2021/12/03 01:01:50;;;;;;;6.30;4.83;;;3.50;99.90;;;;;;4998059;28;20172;-62
2021/12/03 01:04:15;;;;;;;6.90;5.80;;;3.20;99.90;;;;;;4998009;28;20200;-62
2021/12/03 01:06:41;;;;;;;6.87;5.47;;;3.20;99.90;;;;;;4996690;28;20450;-62
2021/12/03 01:09:07;;;;;;;8.77;6.57;;;3.20;99.90;;;;;;4997808;28;20592;-62
2021/12/03 01:11:33;;;;;;;7.73;6.23;;;3.30;99.90;;;;;;4998602;28;20407;-62
2021/12/03 01:14:00;;;;;;;8.50;6.37;;;3.30;99.90;;;;;;4998124;28;20196;-62
2021/12/03 01:16:27;;;;;;;7.07;6.00;;;3.30;99.90;;;;;;4996595;28;20846;-62
2021/12/03 01:18:54;;;;;;;6.80;5.90;;;3.30;99.90;;;;;;4997519;28;20471;-62
2021/12/03 01:21:20;;;;;;;7.53;6.10;;;3.40;99.90;;;;;;4996958;28;20410;-62
2021/12/03 01:23:47;;;;;;;12.23;7.10;;;3.40;99.90;;;;;;4981102;28;20447;-62
2021/12/03 01:26:14;;;;;;;7.67;6.30;;;3.40;99.90;;;;;;5014051;28;20447;-62
2021/12/03 01:28:41;;;;;;;7.53;6.43;;;3.50;99.90;;;;;;4997283;28;21006;-61
2021/12/03 01:31:07;;;;;;;9.17;6.70;;;3.30;99.90;;;;;;5015079;28;20438;-62
2021/12/03 01:33:33;;;;;;;8.40;6.70;;;3.50;99.90;;;;;;4997392;28;20423;-62
2021/12/03 01:35:59;;;;;;;10.00;6.73;;;3.60;99.90;;;;;;4997301;28;20225;-61
2021/12/03 01:38:24;;;;;;;7.37;6.10;;;3.60;99.90;;;;;;5014615;28;20399;-61
2021/12/03 01:40:50;;;;;;;8.27;6.23;;;3.60;99.90;;;;;;4996156;28;20172;-62
2021/12/03 01:43:26;;;;;;;7.37;6.37;;;3.60;99.90;;;;;;4996922;28;20326;-62
2021/12/03 01:45:55;;;;;;;7.30;6.00;;;3.60;99.90;;;;;;5014718;28;20977;-63
2021/12/03 01:48:21;;;;;;;6.23;5.30;;;3.50;99.90;;;;;;4997118;28;20410;-63
2021/12/03 01:50:48;;;;;;;7.60;5.83;;;3.60;99.90;;;;;;4997008;28;20411;-62
2021/12/03 01:53:18;;;;;;;7.70;6.80;;;3.70;99.90;;;;;;4996885;28;20426;-61
2021/12/03 01:55:45;;;;;;;10.20;6.40;;;3.60;99.90;;;;;;4995310;28;20463;-63
2021/12/03 01:58:11;;;;;;;6.47;5.87;;;3.70;99.90;;;;;;4980736;28;20417;-62
2021/12/03 02:00:44;;;;;;;7.97;7.17;;;3.60;99.90;;;;;;4996813;28;20415;-60
2021/12/03 02:03:14;;;;;;;7.57;5.97;;;3.60;99.90;;;;;;4996810;28;20463;-61
2021/12/03 02:05:40;;;;;;;7.63;6.53;;;3.50;99.90;;;;;;4996759;28;20454;-62
2021/12/03 02:08:06;;;;;;;7.37;6.67;;;3.40;99.90;;;;;;4996687;28;20409;-63
2021/12/03 02:10:34;;;;;;;9.53;6.27;;;3.40;99.90;;;;;;4981659;28;20478;-62
2021/12/03 02:12:59;;;;;;;9.50;6.00;;;3.20;99.90;;;;;;5011148;28;20542;-62
2021/12/03 02:15:25;;;;;;;6.80;5.80;;;3.10;99.90;;;;;;4996871;28;20445;-62
2021/12/03 02:17:51;;;;;;;9.53;7.30;;;3.10;99.90;;;;;;5014909;28;20172;-63
2021/12/03 02:20:17;;;;;;;6.77;5.70;;;3.00;99.90;;;;;;5013263;28;20172;-62
2021/12/03 02:25:20;;;;;;;7.50;6.80;;;2.90;99.90;;;;;;5011785;28;20489;-59
2021/12/03 02:27:50;;;;;;;9.60;7.07;;;2.80;99.90;;;;;;4995666;28;20399;-61
2021/12/03 02:30:16;;;;;;;8.90;6.67;;;2.90;99.90;;;;;;5013201;28;20765;-61
2021/12/03 02:32:42;;;;;;;9.20;7.70;;;3.10;99.90;;;;;;4978241;28;20421;-60
2021/12/03 02:35:09;;;;;;;8.67;6.80;;;3.10;99.90;;;;;;4996118;28;20403;-61
2021/12/03 02:37:35;;;;;;;7.40;6.60;;;3.10;99.90;;;;;;4979838;28;20399;-62
2021/12/03 02:40:02;;;;;;;7.00;6.40;;;3.20;99.90;;;;;;5013175;28;20423;-63
2021/12/03 02:42:28;;;;;;;7.10;6.20;;;3.30;99.90;;;;;;4979175;28;20498;-63
2021/12/03 02:44:54;;;;;;;9.00;7.33;;;3.10;99.90;;;;;;4977230;28;20502;-62
2021/12/03 02:47:19;;;;;;;10.00;7.07;;;3.10;99.90;;;;;;4995782;28;20243;-61
2021/12/03 02:49:45;;;;;;;11.13;6.83;;;3.10;99.90;;;;;;5013337;28;20200;-60
2021/12/03 02:52:11;;;;;;;7.10;6.40;;;3.10;99.90;;;;;;5012982;28;20525;-61
2021/12/03 02:54:37;;;;;;;8.13;7.00;;;3.10;99.90;;;;;;5013233;28;20195;-63
2021/12/03 02:57:03;;;;;;;7.77;6.77;;;3.10;99.90;;;;;;4995589;28;20417;-63
2021/12/03 02:59:32;;;;;;;7.47;6.63;;;3.00;99.90;;;;;;5012983;28;20410;-63
2021/12/03 03:01:59;;;;;;;8.07;6.93;;;3.00;99.90;;;;;;5012252;28;20422;-59
2021/12/03 03:04:26;;;;;;;7.17;6.47;;;2.90;99.90;;;;;;4979419;28;20434;-59
2021/12/03 03:06:51;;;;;;;6.03;5.43;;;3.00;99.90;;;;;;4995761;28;20890;-61
2021/12/03 03:09:17;;;;;;;6.67;5.90;;;3.10;99.90;;;;;;4995410;28;20951;-62
2021/12/03 03:11:43;;;;;;;8.17;6.87;;;3.10;99.90;;;;;;5013198;28;20168;-62
2021/12/03 03:14:09;;;;;;;5.93;5.33;;;3.10;99.90;;;;;;5013029;28;20235;-61
2021/12/03 03:16:35;;;;;;;9.33;7.63;;;3.20;99.90;;;;;;5012439;28;20431;-63
2021/12/03 03:19:10;;;;;;;8.97;7.00;;;3.20;99.90;;;;;;4995532;28;20415;-62
2021/12/03 03:21:36;;;;;;;9.77;8.73;;;3.20;99.90;;;;;;4995665;28;20549;-63
2021/12/03 03:24:02;;;;;;;8.47;7.53;;;3.10;99.90;;;;;;4995154;28;20524;-62
2021/12/03 03:26:28;;;;;;;7.30;6.50;;;3.10;99.90;;;;;;4979947;28;20459;-62
2021/12/03 03:28:57;;;;;;;7.63;6.27;;;3.10;99.90;;;;;;4995357;28;20402;-62
2021/12/03 03:31:23;;;;;;;9.73;6.80;;;3.10;99.90;;;;;;4995688;28;20482;-62
2021/12/03 03:33:48;;;;;;;7.83;7.00;;;3.20;99.90;;;;;;4971641;28;21027;-62
2021/12/03 03:36:14;;;;;;;9.03;7.00;;;3.20;99.90;;;;;;4993499;28;20181;-62
2021/12/03 03:38:40;;;;;;;7.20;6.50;;;3.30;99.90;;;;;;4993071;28;20259;-60
2021/12/03 03:41:05;;;;;;;7.03;6.27;;;3.30;99.90;;;;;;4992183;28;20220;-61
2021/12/03 03:43:31;;;;;;;6.93;6.33;;;3.30;99.90;;;;;;4993168;28;20224;-62
2021/12/03 03:45:57;;;;;;;7.20;6.50;;;3.20;99.90;;;;;;4998190;28;20654;-62
2021/12/03 03:48:24;;;;;;;7.13;6.53;;;3.40;99.90;;;;;;4982879;28;20411;-63
2021/12/03 03:50:51;;;;;;;8.50;6.87;;;3.30;99.90;;;;;;4998348;28;20896;-63
2021/12/03 03:53:17;;;;;;;8.27;6.57;;;3.50;99.90;;;;;;4997862;28;20452;-62
2021/12/03 03:55:43;;;;;;;9.90;7.37;;;3.50;99.90;;;;;;4998617;28;20417;-62
2021/12/03 03:58:09;;;;;;;7.77;6.97;;;3.50;99.90;;;;;;5015965;28;20407;-62
2021/12/03 04:00:41;;;;;;;8.10;7.30;;;3.50;99.90;;;;;;4998285;28;20176;-63
2021/12/03 04:03:08;;;;;;;10.60;7.80;;;3.50;99.90;;;;;;4998500;28;20200;-62
2021/12/03 04:05:34;;;;;;;7.13;6.40;;;3.50;99.90;;;;;;4997204;28;20469;-62
2021/12/03 04:07:59;;;;;;;6.60;5.90;;;3.50;99.90;;;;;;4998587;28;20411;-63
2021/12/03 04:10:25;;;;;;;8.00;7.20;;;3.70;99.90;;;;;;4998363;28;20427;-61
2021/12/03 04:12:51;;;;;;;12.17;7.80;;;3.80;99.90;;;;;;4981904;28;20264;-61
2021/12/03 04:15:18;;;;;;;9.40;8.20;;;3.80;99.90;;;;;;5014146;28;20500;-63
2021/12/03 04:17:43;;;;;;;10.67;8.10;;;3.80;99.90;;;;;;4998728;28;20417;-63
2021/12/03 04:20:11;;;;;;;8.37;7.47;;;3.70;99.90;;;;;;4998413;28;20904;-63
2021/12/03 04:22:38;;;;;;;8.40;6.90;;;3.60;99.90;;;;;;4982984;28;20176;-63
2021/12/03 04:25:06;;;;;;;9.10;7.70;;;3.70;99.90;;;;;;4998140;28;20441;-60
2021/12/03 04:27:31;;;;;;;8.57;7.60;;;3.80;99.90;;;;;;4998907;28;20907;-61
2021/12/03 04:29:57;;;;;;;16.70;7.80;;;3.50;99.90;;;;;;4997824;28;20410;-63
2021/12/03 04:32:25;;;;;;;10.03;7.90;;;3.60;99.90;;;;;;4997772;28;20420;-62
2021/12/03 04:34:51;;;;;;;9.20;6.90;;;3.60;99.90;;;;;;4997852;28;20219;-61
2021/12/03 04:37:17;;;;;;;8.20;7.40;;;3.70;99.90;;;;;;4998163;28;20414;-62
2021/12/03 04:39:43;;;;;;;7.93;7.07;;;3.80;99.90;;;;;;5014156;28;20789;-59
2021/12/03 04:42:09;;;;;;;10.20;8.30;;;3.80;99.90;;;;;;4981982;28;20206;-61
2021/12/03 04:44:35;;;;;;;9.47;7.20;;;3.80;99.90;;;;;;4981427;28;20216;-62
2021/12/03 04:47:02;;;;;;;9.77;7.70;;;3.80;99.90;;;;;;4997271;28;20801;-62
2021/12/03 04:49:28;;;;;;;9.90;7.97;;;3.80;99.90;;;;;;4996713;28;20517;-62
2021/12/03 04:51:54;;;;;;;9.77;8.57;;;3.80;99.90;;;;;;4997746;28;20445;-61
2021/12/03 04:54:21;;;;;;;10.97;9.07;;;3.80;99.90;;;;;;5015687;28;20552;-62
2021/12/03 04:56:46;;;;;;;11.70;8.40;;;3.90;99.90;;;;;;4995467;28;20427;-61
2021/12/03 04:59:12;;;;;;;8.70;7.83;;;4.00;99.90;;;;;;5015153;28;20417;-61
2021/12/03 05:01:39;;;;;;;8.00;7.20;;;4.10;99.90;;;;;;4996018;28;20176;-61
2021/12/03 05:04:05;;;;;;;10.43;8.90;;;3.90;99.90;;;;;;5005814;28;20259;-62
2021/12/03 05:06:52;;;;;;;10.13;8.83;;;3.80;99.90;;;;;;4978022;28;20475;-61
2021/12/03 05:09:16;;;;;;;11.23;8.10;;;4.00;99.90;;;;;;4997054;28;20919;-62
2021/12/03 05:11:42;;;;;;;14.03;9.73;;;4.10;99.90;;;;;;4997724;28;20466;-62
2021/12/03 05:14:07;;;;;;;13.47;10.30;;;4.10;99.90;;;;;;5015035;28;20188;-61
2021/12/03 05:16:33;;;;;;;13.20;11.00;;;3.70;99.90;;;;;;5014786;28;20206;-60
2021/12/03 05:18:59;;;;;;;14.10;11.30;;;3.80;99.90;;;;;;5014568;28;20174;-59
2021/12/03 05:21:25;;;;;;;10.67;9.63;;;3.90;99.90;;;;;;4980748;28;20179;-61
2021/12/03 05:23:50;;;;;;;12.97;9.70;;;4.00;99.90;;;;;;4980403;28;20216;-60
2021/12/03 05:26:16;;;;;;;9.10;8.20;;;4.10;99.90;;;;;;5014678;28;20507;-59
2021/12/03 05:28:41;;;;;;;10.33;8.97;;;4.10;99.90;;;;;;4975859;28;20181;-61
2021/12/03 05:31:08;;;;;;;10.40;7.80;;;4.10;99.90;;;;;;4977349;28;20180;-60
2021/12/03 05:33:33;;;;;;;8.30;7.50;;;4.00;99.90;;;;;;4994643;28;20224;-61
2021/12/03 05:35:59;;;;;;;9.90;8.97;;;4.00;99.90;;;;;;4961162;28;20497;-59
2021/12/03 05:38:25;;;;;;;8.77;7.83;;;4.00;99.90;;;;;;4979913;28;20638;-60
2021/12/03 05:40:50;;;;;;;8.83;7.93;;;3.80;99.90;;;;;;4995302;28;20181;-62
2021/12/03 05:43:17;;;;;;;8.27;7.47;;;3.80;99.90;;;;;;4994026;28;20211;-62
2021/12/03 05:45:43;;;;;;;10.27;8.40;;;3.60;99.90;;;;;;4960728;28;20283;-62
2021/12/03 05:48:09;;;;;;;8.67;7.87;;;3.40;99.90;;;;;;4960876;28;20408;-62
2021/12/03 05:50:35;;;;;;;9.23;8.33;;;3.60;99.90;;;;;;4997074;28;20919;-62
2021/12/03 05:53:01;;;;;;;8.20;7.40;;;3.70;99.90;;;;;;4996771;28;20219;-62
2021/12/03 05:55:27;;;;;;;8.40;7.50;;;3.90;99.90;;;;;;4996247;28;20567;-62
2021/12/03 05:57:53;;;;;;;9.53;7.97;;;4.00;99.90;;;;;;4996596;28;20442;-62
2021/12/03 06:00:26;;;;;;;9.37;7.97;;;4.00;99.90;;;;;;4996664;28;20445;-62
2021/12/03 06:02:52;;;;;;;9.60;8.17;;;3.80;99.90;;;;;;4995155;28;20908;-62
2021/12/03 06:05:20;;;;;;;10.30;7.53;;;3.80;99.90;;;;;;4996453;28;20545;-62
2021/12/03 06:07:46;;;;;;;9.70;8.70;;;3.80;99.90;;;;;;4980050;28;20438;-62
2021/12/03 06:10:11;;;;;;;9.43;8.53;;;3.80;99.90;;;;;;4994877;28;20423;-62
2021/12/03 06:12:37;;;;;;;11.77;8.23;;;3.50;99.90;;;;;;5013720;28;20168;-62
2021/12/03 06:15:03;;;;;;;11.67;9.90;;;3.60;99.90;;;;;;4979861;28;20179;-61
2021/12/03 06:17:29;;;;;;;9.63;8.63;;;3.60;99.90;;;;;;4995843;28;20187;-62
2021/12/03 06:19:54;;;;;;;9.73;8.73;;;3.60;99.90;;;;;;4979734;28;20807;-62
2021/12/03 06:22:20;;;;;;;12.60;8.87;;;3.50;99.90;;;;;;4979044;28;20168;-62
2021/12/03 06:24:46;;;;;;;10.37;9.37;;;3.50;99.90;;;;;;4995452;28;20279;-63
2021/12/03 06:27:12;;;;;;;10.07;9.07;;;3.60;99.90;;;;;;4994747;28;21064;-62
2021/12/03 06:29:37;;;;;;;11.33;8.77;;;3.40;99.90;;;;;;4995511;28;20545;-61
2021/12/03 06:32:03;;;;;;;11.23;9.30;;;3.30;99.90;;;;;;4995985;28;20174;-61
2021/12/03 06:34:29;;;;;;;9.53;7.80;;;3.30;99.90;;;;;;4994676;28;20192;-62
2021/12/03 06:36:54;;;;;;;8.80;7.93;;;3.40;99.90;;;;;;5013253;28;20818;-62
2021/12/03 06:39:20;;;;;;;10.57;9.00;;;3.30;99.90;;;;;;4995574;28;20183;-62
2021/12/03 06:41:46;;;;;;;10.90;8.93;;;3.50;99.90;;;;;;5013581;28;20204;-62
2021/12/03 06:44:11;;;;;;;9.97;8.97;;;3.50;99.90;;;;;;5013364;28;20202;-61
2021/12/03 06:46:37;;;;;;;11.60;9.67;;;3.40;99.90;;;;;;4996443;28;20214;-62
2021/12/03 06:49:03;;;;;;;12.10;9.70;;;3.50;99.90;;;;;;4995787;28;20211;-62
2021/12/03 06:51:30;;;;;;;10.80;9.67;;;3.60;99.90;;;;;;5012182;28;20172;-62
2021/12/03 06:54:02;;;;;;;12.07;9.43;;;3.60;99.90;;;;;;4995904;28;20943;-62
2021/12/03 06:59:12;;;;;;;11.13;9.17;;;3.40;99.90;;;;;;5012429;28;20437;-62
2021/12/03 07:01:38;;;;;;;10.03;8.30;;;3.40;99.90;;;;;;4979130;28;20994;-62
2021/12/03 07:04:04;;;;;;;9.03;8.20;;;3.20;99.90;;;;;;4996359;28;20195;-62
2021/12/03 07:06:29;;;;;;;10.17;9.17;;;3.30;99.90;;;;;;4996099;28;20195;-61
2021/12/03 07:08:55;;;;;;;11.70;10.50;;;3.30;99.90;;;;;;4995991;28;20415;-62
2021/12/03 07:11:21;;;;;;;13.87;11.70;;;3.20;99.90;;;;;;4979121;28;20164;-61
2021/12/03 07:13:48;;;;;;;10.53;9.53;;;3.20;99.90;;;;;;5012509;28;20191;-62
2021/12/03 07:16:13;;;;;;;9.30;8.00;;;3.10;99.90;;;;;;5012776;28;20242;-62
2021/12/03 07:18:39;;;;;;;8.93;8.13;;;3.10;99.90;;;;;;5013195;28;20494;-62
2021/12/03 07:21:05;;;;;;;9.70;8.40;;;3.00;99.90;;;;;;4999289;28;20206;-62
2021/12/03 07:23:31;;;;;;;10.87;9.77;;;2.90;99.90;;;;;;4999057;28;20442;-60
2021/12/03 07:25:59;;;;;;;11.10;9.90;;;2.80;99.90;;;;;;4982882;28;20457;-61
2021/12/03 07:28:25;;;;;;;13.03;9.70;;;2.70;99.90;;;;;;4999500;28;20931;-61
2021/12/03 07:30:50;;;;;;;9.70;8.33;;;2.70;99.90;;;;;;5015658;28;20417;-61
2021/12/03 07:33:17;;;;;;;9.00;7.90;;;2.60;99.90;;;;;;4981847;28;20518;-62
2021/12/03 07:35:45;;;;;;;9.10;8.20;;;2.60;99.90;;;;;;4997095;28;20169;-59
2021/12/03 07:38:11;;;;;;;9.17;8.00;;;2.50;99.90;;;;;;4979805;28;20462;-62
2021/12/03 07:40:37;;;;;;;12.07;9.33;;;2.60;99.90;;;;;;4980256;28;20416;-61
2021/12/03 07:43:03;;;;;;;11.07;9.60;;;2.60;99.90;;;;;;4979522;28;20431;-60
2021/12/03 07:45:28;;;;;;;11.00;9.00;;;2.70;99.90;;;;;;4982185;28;20798;-63
2021/12/03 07:47:54;;;;;;;10.50;8.87;;;2.80;99.90;;;;;;5016049;28;20247;-62
2021/12/03 07:50:21;;;;;;;9.70;8.70;;;2.70;99.90;;;;;;5015325;28;20191;-62
2021/12/03 07:52:47;;;;;;;10.13;8.83;;;2.70;99.90;;;;;;4998372;28;20415;-63
2021/12/03 07:55:12;;;;;;;11.23;9.33;;;2.80;99.90;;;;;;4995822;28;20419;-63
2021/12/03 07:57:38;;;;;;;9.23;8.10;;;2.80;99.90;;;;;;4990015;28;20174;-61
2021/12/03 08:00:07;;;;;;;7.80;7.03;;;2.60;99.90;;;;;;5016186;28;20676;-62
2021/12/03 08:02:33;;;;;;;8.80;7.57;;;2.60;99.90;;;;;;5016164;28;20406;-60
2021/12/03 08:04:58;;;;;;;8.00;7.20;;;2.60;99.90;;;;;;5015985;28;20423;-62
2021/12/03 08:07:24;;;;;;;9.33;8.30;;;2.60;99.90;;;;;;4997996;28;20211;-61
2021/12/03 08:09:50;;;;;;;9.07;7.73;;;2.50;99.90;;;;;;4998499;28;20172;-62
2021/12/03 08:12:16;;;;;;;8.10;7.23;;;2.40;99.90;;;;;;4997810;28;20438;-61
2021/12/03 08:14:42;;;;;;;10.47;8.30;;;2.50;99.90;;;;;;4999185;28;20431;-63
2021/12/03 08:17:08;;;;;;;8.30;7.37;;;2.60;99.90;;;;;;4998761;28;20168;-63
2021/12/03 08:19:35;;;;;;;9.50;7.73;;;2.60;99.90;;;;;;4998628;28;20964;-63
2021/12/03 08:22:00;;;;;;;8.70;7.80;;;2.60;99.90;;;;;;4998503;28;20427;-62
2021/12/03 08:24:26;;;;;;;9.00;7.97;;;2.60;99.90;;;;;;5022666;23;20537;-61
2021/12/03 08:26:52;;;;;;;11.87;7.80;;;2.60;99.90;;;;;;5016359;28;20210;-60
2021/12/03 08:29:18;;;;;;;9.70;8.53;;;2.90;99.90;;;;;;4999149;28;20258;-61
2021/12/03 08:31:43;;;;;;;8.30;7.07;;;3.10;99.90;;;;;;4998640;28;20183;-61
2021/12/03 08:34:09;;;;;;;10.90;7.33;;;3.20;99.90;;;;;;4983238;28;20477;-60
2021/12/03 08:36:35;;;;;;;7.93;7.13;;;3.30;99.90;;;;;;5016608;28;20168;-61
2021/12/03 08:39:01;;;;;;;8.43;7.50;;;3.50;99.90;;;;;;4999011;28;20414;-60
2021/12/03 08:41:27;;;;;;;10.07;7.43;;;3.70;99.90;;;;;;4998078;28;20199;-61
2021/12/03 08:43:52;;;;;;;11.70;8.00;;;3.70;99.90;;;;;;4998968;28;20435;-61
2021/12/03 08:46:24;;;;;;;8.50;7.60;;;3.60;99.90;;;;;;5017007;28;20202;-60
2021/12/03 08:48:50;;;;;;;9.53;7.37;;;3.70;99.90;;;;;;5017191;28;20563;-63
2021/12/03 08:56:31;;;;;;;8.17;6.07;;;3.90;99.90;;;;;;5016415;28;20390;-62
2021/12/03 08:58:57;;;;;;;9.20;7.93;;;4.00;99.90;;;;;;4998497;28;20808;-62
2021/12/03 09:01:23;;;;;;;7.60;6.83;;;4.00;99.90;;;;;;4997122;28;20431;-59
2021/12/03 09:03:49;;;;;;;6.07;5.47;;;4.00;99.90;;;;;;4998645;28;20434;-60
2021/12/03 09:06:14;;;;;;;7.07;6.37;;;4.00;99.90;;;;;;4999110;28;20211;-61
2021/12/03 09:08:40;;;;;;;5.60;5.00;;;4.00;99.90;;;;;;4998758;28;20164;-60
2021/12/03 09:11:06;;;;;;;6.17;5.47;;;4.00;99.90;;;;;;5016173;28;20168;-60
2021/12/03 09:13:31;;;;;;;6.47;4.80;;;3.70;99.90;;;;;;5015547;28;20199;-60
2021/12/03 09:16:03;;;;;;;5.67;4.97;;;3.60;99.90;;;;;;5014987;28;20175;-61
2021/12/03 09:18:34;;;;;;;4.40;4.00;;;3.70;99.90;;;;;;4997800;28;20541;-59
2021/12/03 09:23:37;;;;;;;5.00;4.00;;;3.40;99.90;;;;;;5009635;28;20511;-60
2021/12/03 09:26:12;;;;;;;11.50;3.97;;;3.50;99.90;;;;;;4999381;28;20440;-59
2021/12/03 09:28:41;;;;;;;4.33;3.60;;;3.30;99.90;;;;;;4996987;28;20438;-59
2021/12/03 09:31:09;;;;;;;7.00;4.43;;;3.20;99.90;;;;;;4985754;28;20472;-60
2021/12/03 09:33:36;;;;;;;3.57;3.27;;;3.40;99.90;;;;;;4998344;28;20990;-60
2021/12/03 09:36:04;;;;;;;5.20;3.83;;;3.50;99.90;;;;;;4998161;28;20449;-58
2021/12/03 09:38:34;;;;;;;3.73;3.43;;;3.40;99.90;;;;;;5015024;28;20407;-59
2021/12/03 09:41:10;;;;;;;6.47;3.10;;;3.40;99.90;;;;;;4997938;28;20410;-61
2021/12/03 09:43:41;;;;;;;4.67;3.97;;;3.50;99.90;;;;;;5015590;28;20439;-59
2021/12/03 09:51:17;;;;;;;3.37;3.07;;;3.50;99.90;;;;;;4996549;28;20384;-59
2021/12/03 09:56:20;;;;;;;3.50;3.20;;;3.90;99.90;;;;;;4996005;28;20522;-59
2021/12/03 10:04:45;;;;;;;4.63;3.50;;;4.00;99.90;;;;;;4998557;28;20443;-59
2021/12/03 10:18:08;;;;;;;2.57;2.37;;;4.30;99.90;;;;;;5013654;28;20423;-60
2021/12/03 10:29:04;;;;;;;6.20;3.73;;;4.30;99.90;;;;;;4995180;28;20420;-60
2021/12/03 10:54:07;;;;;;;6.23;3.77;;;6.70;99.90;;;;;;5008051;28;20191;-61
2021/12/03 11:44:12;;;;;;;5.93;4.73;;;9.00;95.70;;;;;;5000495;28;20429;-60
2021/12/03 11:52:26;;;;;;;4.90;3.80;;;7.70;99.80;;;;;;5017779;28;20390;-60
2021/12/03 12:07:16;;;;;;;4.80;3.30;;;9.50;97.30;;;;;;5016397;28;20427;-60
2021/12/03 12:23:33;;;;;;;4.70;2.83;;;8.40;98.70;;;;;;4985905;28;20417;-61
2021/12/03 12:33:59;;;;;;;4.27;3.87;;;7.70;99.10;;;;;;5015466;28;20813;-60
2021/12/03 12:42:01;;;;;;;3.90;3.50;;;6.40;99.90;;;;;;5014950;28;20415;-60
2021/12/03 14:06:10;;;;;;;5.70;2.40;;;6.20;99.90;;;;;;5013553;28;20214;-60
2021/12/03 14:41:18;;;;;;;3.50;2.60;;;6.10;99.90;;;;;;4998504;28;20393;-60
2021/12/03 14:44:05;;;;;;;3.47;2.70;;;6.20;99.90;;;;;;5013069;28;20429;-59
2021/12/03 14:54:46;;;;;;;4.13;2.90;;;5.80;99.90;;;;;;5011958;28;20431;-59
2021/12/03 15:00:15;;;;;;;3.10;2.90;;;6.00;99.90;;;;;;4997138;28;20391;-59
2021/12/03 15:02:58;;;;;;;6.20;2.77;;;5.90;99.90;;;;;;5012239;28;20428;-60
2021/12/03 15:08:29;;;;;;;3.90;2.70;;;5.90;99.90;;;;;;5012943;28;20430;-61
2021/12/03 15:17:11;;;;;;;7.10;4.00;;;5.80;99.90;;;;;;5012349;28;20435;-60
2021/12/03 15:27:06;;;;;;;4.47;2.83;;;5.50;99.90;;;;;;5012568;28;20817;-61
2021/12/03 15:57:55;;;;;;;3.90;3.00;;;4.70;99.90;;;;;;5015830;28;20391;-61
2021/12/03 16:05:13;;;;;;;6.37;3.43;;;4.40;99.90;;;;;;4995993;28;20478;-61
2021/12/03 16:26:18;;;;;;;4.00;3.30;;;4.50;99.90;;;;;;5015346;28;20457;-59
2021/12/03 16:52:32;;;;;;;4.90;3.70;;;4.50;99.90;;;;;;5000118;28;20442;-60
2021/12/03 16:54:59;;;;;;;5.27;3.33;;;4.60;99.90;;;;;;5015388;28;20454;-60
2021/12/03 16:57:34;;;;;;;4.60;2.93;;;4.70;99.90;;;;;;5015367;28;20414;-61
2021/12/03 17:00:13;;;;;;;2.70;2.50;;;4.60;99.90;;;;;;5015686;28;20397;-60
2021/12/03 17:02:46;;;;;;;4.70;3.50;;;4.50;99.90;;;;;;5014155;28;20942;-60
2021/12/03 17:21:39;;;;;;;5.27;3.63;;;4.50;99.90;;;;;;5015588;28;20418;-60
2021/12/03 17:48:25;;;;;;;4.23;3.33;;;4.40;99.90;;;;;;5014386;28;20407;-58
2021/12/03 17:58:38;;;;;;;14.33;13.03;;;4.50;99.90;;;;;;5014563;28;20391;-60
2021/12/03 18:01:21;;;;;;;5.80;4.37;;;4.60;99.90;;;;;;5014239;28;20391;-61
2021/12/03 18:06:57;;;;;;;4.30;3.57;;;4.50;99.90;;;;;;4999538;28;20517;-60
2021/12/03 18:55:18;;;;;;;4.43;3.77;;;4.20;99.90;;;;;;5012879;28;20204;-61
2021/12/03 18:57:45;;;;;;;5.87;3.60;;;4.30;99.90;;;;;;5013644;28;20884;-61
2021/12/03 19:00:16;;;;;;;3.53;3.07;;;4.30;99.90;;;;;;5012309;28;20426;-60
2021/12/03 19:02:45;;;;;;;3.53;3.20;;;4.40;99.90;;;;;;5013017;28;20395;-61
2021/12/03 19:08:01;;;;;;;4.70;3.43;;;4.50;99.90;;;;;;5013434;28;20521;-61
2021/12/03 19:10:29;;;;;;;4.70;3.50;;;4.60;99.90;;;;;;5013135;28;20445;-61
2021/12/03 19:13:08;;;;;;;11.23;5.10;;;4.70;99.90;;;;;;5014132;28;20422;-61
2021/12/03 19:15:35;;;;;;;5.50;3.97;;;4.70;99.90;;;;;;5013439;28;20485;-59
2021/12/03 19:18:02;;;;;;;3.83;3.53;;;4.70;99.90;;;;;;5017310;28;20411;-61
2021/12/03 19:20:32;;;;;;;10.07;4.40;;;4.80;99.90;;;;;;5016038;28;20908;-61
2021/12/03 19:22:59;;;;;;;4.80;3.87;;;4.80;99.90;;;;;;5017125;28;20399;-60
2021/12/03 19:25:24;;;;;;;7.03;4.77;;;4.80;99.90;;;;;;5014676;28;20459;-61
2021/12/03 19:27:50;;;;;;;4.27;3.80;;;4.60;99.90;;;;;;5009303;28;20433;-61
2021/12/03 19:30:16;;;;;;;3.60;3.27;;;4.70;99.90;;;;;;4997044;28;20466;-61
2021/12/03 19:32:42;;;;;;;3.20;2.90;;;4.60;99.90;;;;;;4996986;28;20200;-61
2021/12/03 19:35:08;;;;;;;3.43;3.13;;;4.70;99.90;;;;;;4996843;28;20250;-61
2021/12/03 19:37:35;;;;;;;3.83;3.43;;;4.80;99.90;;;;;;4979695;28;20412;-61
2021/12/03 19:40:05;;;;;;;5.77;4.20;;;4.80;99.90;;;;;;5002302;28;20808;-62
2021/12/03 19:42:54;;;;;;;6.90;4.50;;;4.80;99.90;;;;;;5017313;28;20415;-62
2021/12/03 19:45:21;;;;;;;4.30;3.90;;;4.90;99.90;;;;;;5015506;28;20466;-61
2021/12/03 19:47:57;;;;;;;5.00;3.93;;;4.80;99.90;;;;;;5017177;28;20431;-62
2021/12/03 19:52:58;;;;;;;4.40;4.00;;;4.80;99.90;;;;;;5016837;28;20386;-61
2021/12/03 19:55:24;;;;;;;4.70;3.30;;;4.70;99.90;;;;;;5016451;28;20860;-62
2021/12/03 19:57:50;;;;;;;4.40;4.00;;;4.80;99.90;;;;;;5016595;28;20422;-60
2021/12/03 20:00:16;;;;;;;5.07;4.30;;;4.80;99.90;;;;;;4997950;28;20488;-61
2021/12/03 20:02:41;;;;;;;4.80;3.83;;;4.70;99.90;;;;;;4998595;28;20363;-61
2021/12/03 20:05:07;;;;;;;5.00;4.50;;;4.80;99.90;;;;;;4997800;28;20246;-62
2021/12/03 20:07:33;;;;;;;5.70;4.77;;;4.80;99.90;;;;;;5016259;28;20200;-61
2021/12/03 20:10:02;;;;;;;4.57;4.17;;;4.60;99.90;;;;;;4998305;28;20765;-61
2021/12/03 20:12:31;;;;;;;4.83;4.13;;;4.50;99.90;;;;;;5016090;28;20175;-62
2021/12/03 20:14:57;;;;;;;5.30;4.30;;;4.50;99.90;;;;;;5015232;28;20423;-63
2021/12/03 20:17:28;;;;;;;4.63;4.10;;;4.60;99.90;;;;;;5015428;28;20485;-61
2021/12/03 20:19:57;;;;;;;5.03;4.57;;;4.70;99.90;;;;;;5016869;28;20474;-61
2021/12/03 20:22:40;;;;;;;5.10;4.50;;;4.80;99.90;;;;;;5015157;28;20422;-61
2021/12/03 20:33:14;;;;;;;4.90;4.07;;;4.70;99.90;;;;;;4997690;28;20380;-61
2021/12/03 20:38:06;;;;;;;6.00;4.90;;;4.70;99.90;;;;;;4980668;28;20404;-60
2021/12/03 20:40:34;;;;;;;6.17;4.47;;;4.60;99.90;;;;;;4980402;28;20169;-61
2021/12/03 20:53:35;;;;;;;4.63;3.80;;;4.80;99.90;;;;;;4997482;28;20727;-61
2021/12/03 21:09:50;;;;;;;3.90;3.53;;;4.80;99.90;;;;;;4982408;28;20399;-61
2021/12/03 21:12:33;;;;;;;4.03;3.60;;;4.80;99.90;;;;;;4977647;28;20428;-61
2021/12/03 21:18:03;;;;;;;3.90;3.50;;;4.70;99.90;;;;;;4996178;28;20438;-58
2021/12/03 21:20:32;;;;;;;4.33;3.93;;;4.70;99.90;;;;;;4979091;28;20440;-60
2021/12/03 21:23:07;;;;;;;3.70;3.40;;;4.80;99.90;;;;;;4979231;28;20424;-58
2021/12/03 21:25:36;;;;;;;4.43;3.10;;;4.90;99.90;;;;;;4978188;28;20877;-59
2021/12/03 21:30:58;;;;;;;5.47;3.77;;;5.00;99.90;;;;;;4996829;28;20430;-62
2021/12/03 21:41:23;;;;;;;3.80;3.50;;;5.20;99.90;;;;;;4995005;28;20428;-57
2021/12/03 21:44:01;;;;;;;3.83;3.43;;;5.00;99.90;;;;;;4978868;28;20415;-60
2021/12/03 21:46:30;;;;;;;7.10;3.67;;;5.00;99.90;;;;;;4978485;28;20440;-61